createdAt,value
2022-09-11T00:01:40.780Z,10.03
2022-09-11T00:04:09.315Z,9.77
2022-09-11T00:06:38.630Z,9.53
2022-09-11T00:09:08.483Z,10.53
2022-09-11T00:11:40.389Z,10.20
2022-09-11T00:14:10.192Z,10.43
2022-09-11T00:16:41.253Z,11.03
2022-09-11T00:19:11.896Z,11.07
2022-09-11T00:21:41.267Z,9.83
2022-09-11T00:24:10.031Z,9.70
2022-09-11T00:26:38.407Z,10.20
2022-09-11T00:29:06.435Z,11.07
2022-09-11T00:31:34.929Z,10.80
2022-09-11T00:34:03.011Z,10.60
2022-09-11T00:36:33.926Z,11.03
2022-09-11T00:39:03.390Z,10.93
2022-09-11T00:41:34.393Z,9.90
2022-09-11T00:44:04.687Z,10.03
2022-09-11T00:46:41.243Z,9.87
2022-09-11T00:49:22.394Z,10.00
2022-09-11T00:51:54.815Z,10.20
2022-09-11T00:54:29.672Z,10.10
2022-09-11T00:56:59.846Z,10.40
2022-09-11T00:59:30.530Z,9.73
2022-09-11T01:02:00.928Z,9.67
2022-09-11T01:04:29.670Z,9.90
2022-09-11T01:06:59.342Z,10.63
2022-09-11T01:09:31.128Z,10.03
2022-09-11T01:12:06.948Z,10.40
2022-09-11T01:14:42.892Z,9.87
2022-09-11T01:17:22.662Z,9.70
2022-09-11T01:20:26.081Z,9.57
2022-09-11T01:23:21.114Z,9.43
2022-09-11T01:26:14.423Z,9.67
2022-09-11T01:28:50.923Z,9.00
2022-09-11T01:31:24.998Z,8.53
2022-09-11T01:34:00.731Z,9.53
2022-09-11T01:36:31.211Z,10.23
2022-09-11T01:39:00.825Z,10.17
2022-09-11T01:41:35.671Z,9.40
2022-09-11T01:44:10.635Z,10.23
2022-09-11T01:46:43.640Z,10.07
2022-09-11T01:49:16.600Z,9.67
2022-09-11T01:51:45.704Z,9.83
2022-09-11T01:54:19.621Z,10.33
2022-09-11T01:56:53.211Z,9.63
2022-09-11T01:59:28.221Z,9.87
2022-09-11T02:02:13.744Z,10.67
2022-09-11T02:04:47.427Z,10.67
2022-09-11T02:07:20.830Z,10.37
2022-09-11T02:09:54.730Z,10.97
2022-09-11T02:12:28.353Z,10.10
2022-09-11T02:15:00.823Z,10.83
2022-09-11T02:17:38.782Z,10.00
2022-09-11T02:20:10.864Z,9.80
2022-09-11T02:22:39.441Z,10.20
2022-09-11T02:25:11.631Z,9.30
2022-09-11T02:27:59.923Z,9.73
2022-09-11T02:30:36.619Z,9.10
2022-09-11T02:33:14.114Z,10.00
2022-09-11T02:35:59.017Z,9.27
2022-09-11T02:38:35.028Z,10.40
2022-09-11T02:41:16.708Z,9.73
2022-09-11T02:44:00.457Z,9.87
2022-09-11T02:46:53.171Z,9.27
2022-09-11T02:49:36.604Z,9.80
2022-09-11T02:52:23.437Z,8.77
2022-09-11T02:54:57.388Z,9.77
2022-09-11T02:57:33.289Z,9.07
2022-09-11T03:00:04.629Z,9.60
2022-09-11T03:02:38.321Z,9.80
2022-09-11T03:05:07.175Z,9.33
2022-09-11T03:07:37.652Z,9.77
2022-09-11T03:10:06.305Z,9.13
2022-09-11T03:12:36.488Z,10.13
2022-09-11T03:15:08.020Z,10.03
2022-09-11T03:17:37.506Z,9.43
2022-09-11T03:20:07.573Z,9.10
2022-09-11T03:22:37.828Z,9.33
2022-09-11T03:25:06.605Z,9.57
2022-09-11T03:27:38.040Z,9.50
2022-09-11T03:30:14.212Z,8.90
2022-09-11T03:32:45.587Z,9.37
2022-09-11T03:35:13.692Z,9.90
2022-09-11T03:37:41.803Z,9.57
2022-09-11T03:40:10.442Z,10.07
2022-09-11T03:42:39.026Z,10.07
2022-09-11T03:45:09.270Z,9.20
2022-09-11T03:47:42.825Z,9.93
2022-09-11T03:50:15.382Z,9.43
2022-09-11T03:52:45.240Z,9.50
2022-09-11T03:55:15.148Z,9.10
2022-09-11T03:57:43.710Z,9.63
2022-09-11T04:00:14.974Z,9.67
2022-09-11T04:02:43.721Z,9.97
2022-09-11T04:08:38.307Z,8.77
2022-09-11T04:11:12.678Z,9.63
2022-09-11T04:13:45.231Z,9.43
2022-09-11T04:16:21.044Z,9.40
2022-09-11T04:18:54.430Z,9.33
2022-09-11T04:21:23.781Z,8.90
2022-09-11T04:24:06.063Z,9.30
2022-09-11T04:26:41.994Z,9.17
2022-09-11T04:29:12.171Z,10.03
2022-09-11T04:31:42.528Z,9.33
2022-09-11T04:34:11.082Z,9.30
2022-09-11T04:36:40.247Z,8.80
2022-09-11T04:39:12.003Z,9.00
2022-09-11T04:41:41.089Z,9.27
2022-09-11T04:44:10.807Z,9.10
2022-09-11T04:46:41.028Z,9.40
2022-09-11T04:49:17.042Z,9.10
2022-09-11T04:51:46.568Z,9.03
2022-09-11T04:54:21.238Z,10.13
2022-09-11T04:56:53.035Z,9.33
2022-09-11T04:59:25.619Z,9.40
2022-09-11T05:01:54.558Z,9.33
2022-09-11T05:04:26.241Z,9.63
2022-09-11T05:06:59.306Z,8.37
2022-09-11T05:09:43.073Z,8.97
2022-09-11T05:12:15.240Z,9.13
2022-09-11T05:14:44.754Z,9.13
2022-09-11T05:17:18.459Z,8.60
2022-09-11T05:19:47.229Z,8.47
2022-09-11T05:22:19.186Z,8.87
2022-09-11T05:25:16.158Z,9.23
2022-09-11T05:27:56.204Z,8.77
2022-09-11T05:30:31.603Z,8.90
2022-09-11T05:33:02.644Z,8.17
2022-09-11T05:35:34.772Z,8.90
2022-09-11T05:38:04.278Z,9.07
2022-09-11T05:40:36.247Z,8.87
2022-09-11T05:43:13.545Z,8.23
2022-09-11T05:45:46.112Z,8.93
2022-09-11T05:48:16.326Z,8.60
2022-09-11T05:50:44.286Z,9.30
2022-09-11T05:53:12.783Z,8.47
2022-09-11T05:55:43.677Z,9.30
2022-09-11T05:58:14.525Z,9.30
2022-09-11T06:00:47.257Z,8.97
2022-09-11T06:03:16.224Z,9.20
2022-09-11T06:05:45.736Z,8.03
2022-09-11T06:08:14.303Z,8.93
2022-09-11T06:10:48.227Z,9.47
2022-09-11T06:13:17.792Z,9.10
2022-09-11T06:15:47.253Z,8.80
2022-09-11T06:18:23.374Z,8.97
2022-09-11T06:21:00.459Z,9.30
2022-09-11T06:23:31.506Z,8.80
2022-09-11T06:26:08.886Z,7.90
2022-09-11T06:28:54.355Z,8.90
2022-09-11T06:31:26.201Z,9.33
2022-09-11T06:33:59.244Z,7.10
2022-09-11T06:36:38.426Z,8.20
2022-09-11T06:39:14.172Z,8.93
2022-09-11T06:41:45.798Z,8.47
2022-09-11T06:44:14.668Z,8.77
2022-09-11T06:46:42.906Z,9.00
2022-09-11T06:49:14.881Z,8.30
2022-09-11T06:51:46.821Z,7.67
2022-09-11T06:55:21.114Z,7.30
2022-09-11T06:58:16.813Z,7.13
2022-09-11T07:00:50.034Z,7.67
2022-09-11T07:03:39.034Z,7.80
2022-09-11T07:12:34.102Z,6.90
2022-09-11T07:17:56.014Z,6.90
2022-09-11T07:20:31.834Z,5.93
2022-09-11T07:23:05.044Z,6.37
2022-09-11T07:31:21.111Z,6.43
2022-09-11T07:33:58.794Z,6.10
2022-09-11T07:36:30.126Z,5.43
2022-09-11T07:39:01.235Z,5.27
2022-09-11T07:41:38.073Z,5.30
2022-09-11T07:44:17.925Z,5.33
2022-09-11T07:47:23.950Z,4.50
2022-09-11T07:50:18.843Z,5.23
2022-09-11T07:53:07.477Z,4.90
2022-09-11T07:55:45.632Z,4.10
2022-09-11T07:58:17.154Z,4.20
2022-09-11T08:00:45.526Z,4.13
2022-09-11T08:03:38.973Z,3.90
2022-09-11T08:06:17.850Z,3.40
2022-09-11T08:12:37.139Z,2.77
2022-09-11T08:15:47.836Z,2.70
2022-09-11T08:27:21.743Z,2.40
2022-09-11T08:29:55.832Z,2.20
2022-09-11T08:32:28.228Z,2.20
2022-09-11T08:35:02.021Z,1.90
2022-09-11T08:40:44.810Z,2.87
2022-09-11T08:43:23.966Z,2.40
2022-09-11T08:46:12.250Z,2.60
2022-09-11T08:48:51.747Z,2.40
2022-09-11T08:51:30.222Z,2.20
2022-09-11T08:54:02.065Z,2.50
2022-09-11T08:56:36.807Z,2.10
2022-09-11T08:59:19.208Z,2.40
2022-09-11T09:01:59.303Z,2.17
2022-09-11T09:04:50.487Z,2.20
2022-09-11T09:07:27.594Z,2.10
2022-09-11T09:10:32.989Z,2.30
2022-09-11T09:16:46.342Z,2.23
2022-09-11T09:19:28.123Z,2.30
2022-09-11T09:22:23.592Z,2.23
2022-09-11T09:25:07.997Z,2.23
2022-09-11T09:31:03.737Z,2.10
2022-09-11T09:33:41.163Z,2.10
2022-09-11T09:36:59.844Z,2.30
2022-09-11T09:39:48.741Z,1.70
2022-09-11T09:42:43.488Z,2.03
2022-09-11T09:46:02.210Z,2.20
2022-09-11T09:48:47.104Z,2.20
2022-09-11T09:51:15.898Z,1.80
2022-09-11T09:53:49.503Z,2.23
2022-09-11T09:56:37.148Z,2.20
2022-09-11T09:59:19.243Z,2.13
2022-09-11T10:01:50.126Z,1.80
2022-09-11T10:04:25.366Z,2.03
2022-09-11T10:06:55.698Z,2.10
2022-09-11T10:09:42.823Z,1.90
2022-09-11T10:12:17.732Z,2.03
2022-09-11T10:14:55.011Z,2.30
2022-09-11T10:17:24.689Z,1.90
2022-09-11T10:20:25.550Z,2.33
2022-09-11T10:22:54.942Z,1.70
2022-09-11T10:25:26.512Z,1.80
2022-09-11T10:28:13.749Z,2.10
2022-09-11T10:30:48.506Z,2.80
2022-09-11T10:33:20.421Z,2.13
2022-09-11T10:35:55.577Z,2.50
2022-09-11T10:38:28.305Z,1.53
2022-09-11T10:40:59.589Z,1.70
2022-09-11T10:43:36.789Z,2.50
2022-09-11T10:46:21.097Z,1.80
2022-09-11T10:48:55.345Z,2.23
2022-09-11T10:52:01.836Z,2.17
2022-09-11T10:54:44.528Z,1.80
2022-09-11T10:57:19.631Z,1.60
2022-09-11T11:00:11.084Z,1.60
2022-09-11T11:02:42.964Z,1.83
2022-09-11T11:05:20.875Z,2.10
2022-09-11T11:08:24.894Z,2.10
2022-09-11T11:11:15.234Z,1.67
2022-09-11T11:14:09.014Z,1.60
2022-09-11T11:16:47.552Z,1.83
2022-09-11T11:19:34.910Z,1.60
2022-09-11T11:22:13.877Z,1.70
2022-09-11T11:25:00.604Z,2.00
2022-09-11T11:27:51.517Z,1.90
2022-09-11T11:30:21.954Z,1.30
2022-09-11T11:33:09.622Z,1.50
2022-09-11T11:35:47.085Z,1.40
2022-09-11T11:38:22.398Z,1.10
2022-09-11T11:40:56.023Z,1.83
2022-09-11T11:43:27.405Z,3.00
2022-09-11T11:46:02.281Z,1.50
2022-09-11T11:48:36.964Z,1.47
2022-09-11T11:51:09.700Z,1.60
2022-09-11T11:53:47.238Z,1.13
2022-09-11T11:56:36.204Z,1.20
2022-09-11T11:59:12.524Z,1.57
2022-09-11T12:01:44.432Z,1.10
2022-09-11T12:04:24.248Z,1.40
2022-09-11T12:06:52.616Z,1.40
2022-09-11T12:09:20.837Z,1.40
2022-09-11T12:11:54.442Z,1.27
2022-09-11T12:14:34.044Z,1.37
2022-09-11T12:17:18.108Z,1.60
2022-09-11T12:20:30.533Z,1.57
2022-09-11T12:23:09.006Z,0.90
2022-09-11T12:26:18.570Z,1.30
2022-09-11T12:28:50.458Z,1.20
2022-09-11T12:31:19.894Z,1.43
2022-09-11T12:33:55.672Z,1.20
2022-09-11T12:36:55.271Z,1.90
2022-09-11T12:39:31.125Z,1.00
2022-09-11T12:42:36.238Z,1.00
2022-09-11T12:45:06.213Z,1.47
2022-09-11T12:47:37.687Z,1.47
2022-09-11T12:50:21.144Z,1.23
2022-09-11T12:53:02.304Z,1.40
2022-09-11T12:55:34.946Z,1.10
2022-09-11T12:58:06.660Z,0.93
2022-09-11T13:00:41.116Z,1.00
2022-09-11T13:03:18.975Z,0.90
2022-09-11T13:05:55.109Z,1.17
2022-09-11T13:08:26.148Z,1.20
2022-09-11T13:10:54.091Z,0.83
2022-09-11T13:13:46.903Z,0.90
2022-09-11T13:16:25.525Z,3.70
2022-09-11T13:18:58.138Z,3.50
2022-09-11T13:21:26.870Z,1.87
2022-09-11T13:23:58.690Z,1.47
2022-09-11T13:26:31.248Z,1.30
2022-09-11T13:29:01.679Z,1.37
2022-09-11T13:31:35.645Z,1.10
2022-09-11T13:34:08.795Z,1.30
2022-09-11T13:36:37.951Z,1.03
2022-09-11T13:39:12.063Z,1.13
2022-09-11T13:41:44.471Z,0.93
2022-09-11T13:44:29.114Z,0.90
2022-09-11T13:47:01.662Z,1.20
2022-09-11T13:49:41.211Z,1.13
2022-09-11T13:52:13.707Z,1.00
2022-09-11T13:54:45.650Z,1.37
2022-09-11T13:57:16.706Z,0.90
2022-09-11T13:59:53.610Z,1.00
2022-09-11T14:02:51.106Z,1.00
2022-09-11T14:05:22.551Z,1.00
2022-09-11T14:08:07.739Z,1.03
2022-09-11T14:10:49.657Z,0.87
2022-09-11T14:13:23.033Z,0.93
2022-09-11T14:15:53.860Z,1.03
2022-09-11T14:18:33.163Z,1.00
2022-09-11T14:21:06.200Z,0.93
2022-09-11T14:23:43.614Z,1.60
2022-09-11T14:26:16.289Z,1.17
2022-09-11T14:28:48.747Z,0.70
2022-09-11T14:31:31.416Z,1.10
2022-09-11T14:34:29.794Z,1.10
2022-09-11T14:37:05.829Z,0.87
2022-09-11T14:39:40.061Z,1.77
2022-09-11T14:42:09.702Z,1.60
2022-09-11T14:44:40.774Z,1.50
2022-09-11T14:47:17.203Z,1.60
2022-09-11T14:49:48.117Z,0.80
2022-09-11T14:52:20.978Z,0.70
2022-09-11T14:54:49.560Z,0.60
2022-09-11T14:57:21.531Z,0.70
2022-09-11T14:59:50.628Z,1.07
2022-09-11T15:02:21.237Z,1.40
2022-09-11T15:04:52.028Z,1.00
2022-09-11T15:07:24.321Z,0.90
2022-09-11T15:09:54.496Z,1.60
2022-09-11T15:12:23.576Z,3.20
2022-09-11T15:14:57.171Z,2.47
2022-09-11T15:17:30.485Z,3.87
2022-09-11T15:20:01.731Z,5.13
2022-09-11T15:22:35.032Z,0.83
2022-09-11T15:25:04.626Z,1.37
2022-09-11T15:27:32.600Z,1.20
2022-09-11T15:30:00.698Z,1.07
2022-09-11T15:32:44.959Z,1.10
2022-09-11T15:38:25.524Z,1.30
2022-09-11T15:41:06.032Z,1.03
2022-09-11T15:43:40.014Z,1.20
2022-09-11T15:46:14.660Z,0.90
2022-09-11T15:48:55.222Z,1.50
2022-09-11T15:51:31.908Z,1.27
2022-09-11T15:54:05.158Z,0.97
2022-09-11T15:56:41.612Z,0.90
2022-09-11T15:59:40.552Z,0.90
2022-09-11T16:02:13.143Z,0.80
2022-09-11T16:25:57.746Z,1.80
2022-09-11T16:28:40.106Z,1.50
2022-09-11T16:51:37.374Z,1.00
2022-09-11T16:55:12.544Z,1.40
2022-09-11T17:00:53.300Z,1.33
2022-09-11T17:12:40.691Z,1.30
2022-09-11T18:01:00.489Z,1.53
2022-09-11T18:09:12.457Z,1.50
2022-09-11T18:13:01.609Z,1.83
2022-09-11T18:15:50.428Z,1.20
2022-09-11T18:22:29.759Z,1.20
2022-09-11T18:24:59.845Z,1.40
2022-09-11T18:45:18.606Z,1.30
2022-09-11T18:48:17.454Z,1.60
2022-09-11T18:59:22.332Z,1.47
2022-09-11T19:05:56.426Z,1.47
2022-09-11T19:14:28.498Z,1.57
2022-09-11T19:17:06.710Z,1.50
2022-09-11T19:19:37.319Z,1.70
2022-09-11T19:22:38.182Z,1.30
2022-09-11T19:25:08.492Z,1.83
2022-09-11T19:27:38.145Z,2.00
2022-09-11T19:30:09.797Z,1.70
2022-09-11T19:32:41.747Z,2.10
2022-09-11T19:35:09.579Z,1.70
2022-09-11T19:37:39.945Z,1.57
2022-09-11T19:40:15.666Z,1.50
2022-09-11T19:42:43.849Z,1.40
2022-09-11T19:45:14.874Z,1.50
2022-09-11T19:47:42.753Z,1.90
2022-09-11T19:50:19.218Z,1.60
2022-09-11T19:52:48.579Z,2.10
2022-09-11T19:55:17.283Z,2.07
2022-09-11T19:57:45.370Z,2.10
2022-09-11T20:00:25.797Z,1.77
2022-09-11T20:02:57.902Z,2.20
2022-09-11T20:05:31.580Z,2.60
2022-09-11T20:08:07.913Z,2.37
2022-09-11T20:10:44.846Z,2.40
2022-09-11T20:13:28.706Z,2.60
2022-09-11T20:16:08.597Z,2.23
2022-09-11T20:18:47.606Z,1.90
2022-09-11T20:21:32.335Z,2.20
2022-09-11T20:24:11.335Z,2.23
2022-09-11T20:26:55.577Z,2.13
2022-09-11T20:29:37.304Z,2.10
2022-09-11T20:32:08.607Z,2.17
2022-09-11T20:34:40.532Z,2.37
2022-09-11T20:43:12.789Z,2.70
2022-09-11T20:45:46.084Z,2.60
2022-09-11T20:48:34.145Z,2.13
2022-09-11T20:51:13.615Z,2.47
2022-09-11T20:54:15.527Z,4.27
2022-09-11T20:56:52.316Z,3.00
2022-09-11T21:00:20.431Z,3.17
2022-09-11T21:06:25.813Z,2.90
2022-09-11T21:11:52.760Z,3.30
2022-09-11T21:14:47.538Z,2.90
2022-09-11T21:20:35.742Z,3.13
2022-09-11T21:23:13.391Z,3.30
2022-09-11T21:25:50.762Z,3.43
2022-09-11T21:28:33.608Z,3.07
2022-09-11T21:31:11.355Z,3.20
2022-09-11T21:33:52.108Z,3.10
2022-09-11T21:36:37.432Z,3.40
2022-09-11T21:39:12.389Z,3.20
2022-09-11T21:41:46.452Z,3.43
2022-09-11T21:44:25.375Z,3.33
2022-09-11T21:47:11.155Z,3.30
2022-09-11T21:49:45.015Z,3.73
2022-09-11T21:52:17.741Z,3.87
2022-09-11T21:54:57.776Z,4.07
2022-09-11T21:57:29.994Z,3.50
2022-09-11T21:59:59.551Z,3.93
2022-09-11T22:02:29.448Z,3.40
2022-09-11T22:04:58.337Z,3.73
2022-09-11T22:07:27.921Z,4.27
2022-09-11T22:09:56.701Z,3.60
2022-09-11T22:12:27.474Z,3.27
2022-09-11T22:14:56.518Z,3.37
2022-09-11T22:17:26.230Z,3.37
2022-09-11T22:19:56.888Z,3.90
2022-09-11T22:22:34.359Z,3.40
2022-09-11T22:25:18.086Z,3.53
2022-09-11T22:27:50.599Z,3.43
2022-09-11T22:32:58.392Z,3.67
2022-09-11T22:35:45.668Z,3.40
2022-09-11T22:38:34.152Z,3.43
2022-09-11T22:41:08.507Z,3.37
2022-09-11T22:43:40.624Z,3.73
2022-09-11T22:46:17.218Z,3.80
2022-09-11T22:48:46.474Z,3.70
2022-09-11T22:51:16.858Z,3.93
2022-09-11T22:53:47.076Z,3.80
2022-09-11T22:56:15.577Z,4.10
2022-09-11T22:58:44.561Z,4.00
2022-09-11T23:01:21.026Z,4.57
2022-09-11T23:03:51.153Z,4.87
2022-09-11T23:06:39.022Z,4.53
2022-09-11T23:09:10.199Z,4.50
2022-09-11T23:11:40.449Z,5.00
2022-09-11T23:14:13.848Z,5.30
2022-09-11T23:16:45.416Z,5.17
2022-09-11T23:19:15.308Z,5.60
2022-09-11T23:21:46.240Z,5.37
2022-09-11T23:24:18.199Z,5.33
2022-09-11T23:26:49.252Z,6.10
2022-09-11T23:29:31.701Z,5.80
2022-09-11T23:32:05.632Z,6.50
2022-09-11T23:34:39.463Z,6.60
2022-09-11T23:37:14.770Z,6.33
2022-09-11T23:39:48.460Z,7.43
2022-09-11T23:43:26.335Z,7.60
2022-09-11T23:45:55.116Z,7.37
2022-09-11T23:48:24.184Z,8.40
2022-09-11T23:50:54.113Z,8.40
2022-09-11T23:53:25.148Z,8.20
2022-09-11T23:55:59.296Z,8.60
2022-09-11T23:58:28.997Z,8.80
